sensor_id;sensor_type;location;lat;lon;timestamp;P1;durP1;ratioP1;P2;durP2;ratioP2
69900;SDS011;57183;50.930;5.406;2023-02-11T00:00:07;29.55;;;18.17;;
69900;SDS011;57183;50.930;5.406;2023-02-11T00:02:34;31.45;;;18.70;;
69900;SDS011;57183;50.930;5.406;2023-02-11T00:04:59;32.67;;;18.70;;
69900;SDS011;57183;50.930;5.406;2023-02-11T00:07:29;29.90;;;18.05;;
69900;SDS011;57183;50.930;5.406;2023-02-11T00:09:56;35.17;;;18.95;;
69900;SDS011;57183;50.930;5.406;2023-02-11T00:12:21;30.52;;;18.25;;
69900;SDS011;57183;50.930;5.406;2023-02-11T00:14:47;31.05;;;18.83;;
69900;SDS011;57183;50.930;5.406;2023-02-11T00:17:13;32.90;;;18.58;;
69900;SDS011;57183;50.930;5.406;2023-02-11T00:19:39;31.52;;;19.15;;
69900;SDS011;57183;50.930;5.406;2023-02-11T00:22:05;30.23;;;18.58;;
69900;SDS011;57183;50.930;5.406;2023-02-11T00:24:31;37.25;;;19.42;;
69900;SDS011;57183;50.930;5.406;2023-02-11T00:26:56;32.78;;;17.90;;
69900;SDS011;57183;50.930;5.406;2023-02-11T00:29:22;38.28;;;18.75;;
69900;SDS011;57183;50.930;5.406;2023-02-11T00:31:48;37.17;;;21.80;;
69900;SDS011;57183;50.930;5.406;2023-02-11T00:34:14;35.60;;;19.45;;
69900;SDS011;57183;50.930;5.406;2023-02-11T00:36:40;34.47;;;19.25;;
69900;SDS011;57183;50.930;5.406;2023-02-11T00:39:06;30.58;;;17.52;;
69900;SDS011;57183;50.930;5.406;2023-02-11T00:41:32;24.80;;;15.40;;
69900;SDS011;57183;50.930;5.406;2023-02-11T00:43:58;33.33;;;17.98;;
69900;SDS011;57183;50.930;5.406;2023-02-11T00:46:25;34.38;;;18.45;;
69900;SDS011;57183;50.930;5.406;2023-02-11T00:48:50;27.00;;;17.10;;
69900;SDS011;57183;50.930;5.406;2023-02-11T00:51:19;34.75;;;18.85;;
69900;SDS011;57183;50.930;5.406;2023-02-11T00:53:45;36.33;;;18.50;;
69900;SDS011;57183;50.930;5.406;2023-02-11T00:56:10;30.40;;;17.23;;
69900;SDS011;57183;50.930;5.406;2023-02-11T00:58:36;29.05;;;17.13;;
69900;SDS011;57183;50.930;5.406;2023-02-11T01:01:02;31.10;;;17.55;;
69900;SDS011;57183;50.930;5.406;2023-02-11T01:03:28;29.73;;;17.10;;
69900;SDS011;57183;50.930;5.406;2023-02-11T01:05:54;27.63;;;16.52;;
69900;SDS011;57183;50.930;5.406;2023-02-11T01:08:20;27.17;;;17.08;;
69900;SDS011;57183;50.930;5.406;2023-02-11T01:10:52;30.83;;;16.98;;
69900;SDS011;57183;50.930;5.406;2023-02-11T01:13:19;36.53;;;17.95;;
69900;SDS011;57183;50.930;5.406;2023-02-11T01:15:45;35.90;;;18.35;;
69900;SDS011;57183;50.930;5.406;2023-02-11T01:18:11;29.25;;;17.27;;
69900;SDS011;57183;50.930;5.406;2023-02-11T01:20:36;34.30;;;18.88;;
69900;SDS011;57183;50.930;5.406;2023-02-11T01:23:02;27.70;;;17.42;;
69900;SDS011;57183;50.930;5.406;2023-02-11T01:25:28;36.92;;;18.02;;
69900;SDS011;57183;50.930;5.406;2023-02-11T01:27:53;33.22;;;17.25;;
69900;SDS011;57183;50.930;5.406;2023-02-11T01:30:19;33.35;;;17.10;;
69900;SDS011;57183;50.930;5.406;2023-02-11T01:32:45;32.22;;;17.23;;
69900;SDS011;57183;50.930;5.406;2023-02-11T01:35:10;26.55;;;16.27;;
69900;SDS011;57183;50.930;5.406;2023-02-11T01:37:36;29.15;;;16.48;;
69900;SDS011;57183;50.930;5.406;2023-02-11T01:40:05;29.98;;;18.25;;
69900;SDS011;57183;50.930;5.406;2023-02-11T01:42:35;29.80;;;15.32;;
69900;SDS011;57183;50.930;5.406;2023-02-11T01:45:03;28.23;;;16.63;;
69900;SDS011;57183;50.930;5.406;2023-02-11T01:48:20;32.72;;;15.95;;
69900;SDS011;57183;50.930;5.406;2023-02-11T01:50:51;26.60;;;15.43;;
69900;SDS011;57183;50.930;5.406;2023-02-11T01:53:21;29.17;;;15.73;;
69900;SDS011;57183;50.930;5.406;2023-02-11T01:56:05;30.38;;;16.33;;
69900;SDS011;57183;50.930;5.406;2023-02-11T01:58:50;29.02;;;16.25;;
69900;SDS011;57183;50.930;5.406;2023-02-11T02:01:23;25.63;;;15.15;;
69900;SDS011;57183;50.930;5.406;2023-02-11T02:03:51;25.85;;;15.98;;
69900;SDS011;57183;50.930;5.406;2023-02-11T02:06:25;32.20;;;16.98;;
69900;SDS011;57183;50.930;5.406;2023-02-11T02:09:00;28.30;;;15.38;;
69900;SDS011;57183;50.930;5.406;2023-02-11T02:11:30;28.58;;;15.00;;
69900;SDS011;57183;50.930;5.406;2023-02-11T02:13:56;30.17;;;16.13;;
69900;SDS011;57183;50.930;5.406;2023-02-11T02:16:23;30.80;;;15.02;;
69900;SDS011;57183;50.930;5.406;2023-02-11T02:32:26;24.43;;;13.83;;
69900;SDS011;57183;50.930;5.406;2023-02-11T02:37:49;23.38;;;12.55;;
69900;SDS011;57183;50.930;5.406;2023-02-11T02:43:41;25.53;;;9.67;;
69900;SDS011;57183;50.930;5.406;2023-02-11T02:48:37;25.27;;;12.05;;
69900;SDS011;57183;50.930;5.406;2023-02-11T02:57:31;23.23;;;11.27;;
69900;SDS011;57183;50.930;5.406;2023-02-11T03:02:50;21.90;;;10.25;;
69900;SDS011;57183;50.930;5.406;2023-02-11T03:07:59;23.30;;;11.60;;
69900;SDS011;57183;50.930;5.406;2023-02-11T03:10:36;15.13;;;10.57;;
69900;SDS011;57183;50.930;5.406;2023-02-11T03:13:07;24.60;;;11.43;;
69900;SDS011;57183;50.930;5.406;2023-02-11T03:15:35;22.45;;;10.63;;
69900;SDS011;57183;50.930;5.406;2023-02-11T03:18:04;18.10;;;10.70;;
69900;SDS011;57183;50.930;5.406;2023-02-11T03:20:35;20.33;;;10.65;;
69900;SDS011;57183;50.930;5.406;2023-02-11T03:25:57;19.85;;;9.82;;
69900;SDS011;57183;50.930;5.406;2023-02-11T03:28:34;19.98;;;10.32;;
69900;SDS011;57183;50.930;5.406;2023-02-11T03:33:40;20.90;;;10.35;;
69900;SDS011;57183;50.930;5.406;2023-02-11T03:36:18;17.67;;;9.77;;
69900;SDS011;57183;50.930;5.406;2023-02-11T03:38:52;22.30;;;10.82;;
69900;SDS011;57183;50.930;5.406;2023-02-11T03:41:22;17.85;;;9.48;;
69900;SDS011;57183;50.930;5.406;2023-02-11T03:43:52;20.50;;;10.00;;
69900;SDS011;57183;50.930;5.406;2023-02-11T03:46:23;20.38;;;8.90;;
69900;SDS011;57183;50.930;5.406;2023-02-11T03:48:55;17.43;;;9.40;;
69900;SDS011;57183;50.930;5.406;2023-02-11T03:51:26;18.08;;;9.27;;
69900;SDS011;57183;50.930;5.406;2023-02-11T03:53:56;18.83;;;9.07;;
69900;SDS011;57183;50.930;5.406;2023-02-11T03:56:26;16.50;;;9.93;;
69900;SDS011;57183;50.930;5.406;2023-02-11T03:58:56;18.77;;;9.63;;
69900;SDS011;57183;50.930;5.406;2023-02-11T04:01:21;17.65;;;8.85;;
69900;SDS011;57183;50.930;5.406;2023-02-11T04:03:48;18.30;;;10.70;;
69900;SDS011;57183;50.930;5.406;2023-02-11T04:06:13;15.75;;;9.15;;
69900;SDS011;57183;50.930;5.406;2023-02-11T04:08:39;17.73;;;9.85;;
69900;SDS011;57183;50.930;5.406;2023-02-11T04:11:05;18.20;;;10.32;;
69900;SDS011;57183;50.930;5.406;2023-02-11T04:13:30;20.77;;;9.45;;
69900;SDS011;57183;50.930;5.406;2023-02-11T04:15:57;20.38;;;10.73;;
69900;SDS011;57183;50.930;5.406;2023-02-11T04:18:22;17.35;;;8.80;;
69900;SDS011;57183;50.930;5.406;2023-02-11T04:20:49;16.05;;;8.70;;
69900;SDS011;57183;50.930;5.406;2023-02-11T04:23:15;17.40;;;9.73;;
69900;SDS011;57183;50.930;5.406;2023-02-11T04:25:41;22.25;;;10.07;;
69900;SDS011;57183;50.930;5.406;2023-02-11T04:28:07;18.23;;;9.93;;
69900;SDS011;57183;50.930;5.406;2023-02-11T04:30:32;20.17;;;9.68;;
69900;SDS011;57183;50.930;5.406;2023-02-11T04:32:58;23.00;;;11.70;;
69900;SDS011;57183;50.930;5.406;2023-02-11T04:35:24;21.63;;;10.68;;
69900;SDS011;57183;50.930;5.406;2023-02-11T04:37:49;18.27;;;9.25;;
69900;SDS011;57183;50.930;5.406;2023-02-11T04:40:15;27.38;;;10.88;;
69900;SDS011;57183;50.930;5.406;2023-02-11T04:42:41;22.27;;;11.00;;
69900;SDS011;57183;50.930;5.406;2023-02-11T04:45:07;20.55;;;10.75;;
69900;SDS011;57183;50.930;5.406;2023-02-11T04:47:33;19.13;;;9.57;;
69900;SDS011;57183;50.930;5.406;2023-02-11T04:49:59;22.35;;;10.43;;
69900;SDS011;57183;50.930;5.406;2023-02-11T04:52:24;18.85;;;9.95;;
69900;SDS011;57183;50.930;5.406;2023-02-11T04:54:50;18.02;;;9.93;;
69900;SDS011;57183;50.930;5.406;2023-02-11T04:57:16;19.63;;;10.23;;
69900;SDS011;57183;50.930;5.406;2023-02-11T04:59:41;24.33;;;10.45;;
69900;SDS011;57183;50.930;5.406;2023-02-11T05:02:07;22.30;;;10.60;;
69900;SDS011;57183;50.930;5.406;2023-02-11T05:04:33;24.50;;;12.13;;
69900;SDS011;57183;50.930;5.406;2023-02-11T05:06:59;19.85;;;10.25;;
69900;SDS011;57183;50.930;5.406;2023-02-11T05:09:24;24.00;;;9.65;;
69900;SDS011;57183;50.930;5.406;2023-02-11T05:11:50;23.80;;;11.88;;
69900;SDS011;57183;50.930;5.406;2023-02-11T05:14:15;23.58;;;11.10;;
69900;SDS011;57183;50.930;5.406;2023-02-11T05:16:41;27.15;;;12.05;;
69900;SDS011;57183;50.930;5.406;2023-02-11T05:19:07;22.23;;;11.77;;
69900;SDS011;57183;50.930;5.406;2023-02-11T05:21:32;21.95;;;11.38;;
69900;SDS011;57183;50.930;5.406;2023-02-11T05:23:58;20.95;;;12.00;;
69900;SDS011;57183;50.930;5.406;2023-02-11T05:26:24;21.58;;;10.82;;
69900;SDS011;57183;50.930;5.406;2023-02-11T05:28:50;25.73;;;11.40;;
69900;SDS011;57183;50.930;5.406;2023-02-11T05:31:16;22.58;;;10.95;;
69900;SDS011;57183;50.930;5.406;2023-02-11T05:33:42;29.85;;;12.27;;
69900;SDS011;57183;50.930;5.406;2023-02-11T05:36:09;24.77;;;10.93;;
69900;SDS011;57183;50.930;5.406;2023-02-11T05:38:36;22.38;;;12.80;;
69900;SDS011;57183;50.930;5.406;2023-02-11T05:41:03;19.35;;;11.80;;
69900;SDS011;57183;50.930;5.406;2023-02-11T05:43:30;24.90;;;12.60;;
69900;SDS011;57183;50.930;5.406;2023-02-11T05:45:56;28.08;;;12.80;;
69900;SDS011;57183;50.930;5.406;2023-02-11T05:48:22;28.85;;;12.88;;
69900;SDS011;57183;50.930;5.406;2023-02-11T05:50:47;27.33;;;13.30;;
69900;SDS011;57183;50.930;5.406;2023-02-11T05:53:13;24.05;;;14.43;;
69900;SDS011;57183;50.930;5.406;2023-02-11T05:55:39;28.42;;;13.43;;
69900;SDS011;57183;50.930;5.406;2023-02-11T05:58:05;23.80;;;14.63;;
69900;SDS011;57183;50.930;5.406;2023-02-11T06:00:31;27.30;;;13.20;;
69900;SDS011;57183;50.930;5.406;2023-02-11T06:02:57;23.25;;;13.55;;
69900;SDS011;57183;50.930;5.406;2023-02-11T06:05:23;30.65;;;15.10;;
69900;SDS011;57183;50.930;5.406;2023-02-11T06:07:49;24.15;;;13.07;;
69900;SDS011;57183;50.930;5.406;2023-02-11T06:10:14;24.27;;;14.45;;
69900;SDS011;57183;50.930;5.406;2023-02-11T06:12:40;31.90;;;15.38;;
69900;SDS011;57183;50.930;5.406;2023-02-11T06:15:06;31.38;;;14.80;;
69900;SDS011;57183;50.930;5.406;2023-02-11T06:17:32;36.17;;;14.98;;
69900;SDS011;57183;50.930;5.406;2023-02-11T06:19:58;34.80;;;15.98;;
69900;SDS011;57183;50.930;5.406;2023-02-11T06:22:25;32.95;;;14.07;;
69900;SDS011;57183;50.930;5.406;2023-02-11T06:24:51;29.42;;;16.25;;
69900;SDS011;57183;50.930;5.406;2023-02-11T06:27:16;36.63;;;16.48;;
69900;SDS011;57183;50.930;5.406;2023-02-11T06:29:43;37.90;;;17.40;;
69900;SDS011;57183;50.930;5.406;2023-02-11T06:32:10;30.27;;;17.55;;
69900;SDS011;57183;50.930;5.406;2023-02-11T06:34:36;33.25;;;16.63;;
69900;SDS011;57183;50.930;5.406;2023-02-11T06:37:02;35.55;;;18.27;;
69900;SDS011;57183;50.930;5.406;2023-02-11T06:39:27;34.28;;;17.08;;
69900;SDS011;57183;50.930;5.406;2023-02-11T06:41:53;33.13;;;15.73;;
69900;SDS011;57183;50.930;5.406;2023-02-11T06:44:19;40.63;;;17.58;;
69900;SDS011;57183;50.930;5.406;2023-02-11T06:46:45;36.35;;;18.80;;
69900;SDS011;57183;50.930;5.406;2023-02-11T06:49:11;35.17;;;17.00;;
69900;SDS011;57183;50.930;5.406;2023-02-11T06:51:37;39.22;;;18.05;;
69900;SDS011;57183;50.930;5.406;2023-02-11T06:54:04;37.80;;;18.27;;
69900;SDS011;57183;50.930;5.406;2023-02-11T06:56:30;35.40;;;16.65;;
69900;SDS011;57183;50.930;5.406;2023-02-11T06:58:56;36.83;;;16.98;;
69900;SDS011;57183;50.930;5.406;2023-02-11T07:01:22;33.90;;;18.20;;
69900;SDS011;57183;50.930;5.406;2023-02-11T07:03:49;36.20;;;16.05;;
69900;SDS011;57183;50.930;5.406;2023-02-11T07:06:17;39.20;;;17.88;;
69900;SDS011;57183;50.930;5.406;2023-02-11T07:08:44;36.08;;;16.33;;
69900;SDS011;57183;50.930;5.406;2023-02-11T07:11:11;34.78;;;18.77;;
69900;SDS011;57183;50.930;5.406;2023-02-11T07:13:39;39.25;;;18.58;;
69900;SDS011;57183;50.930;5.406;2023-02-11T07:16:05;48.58;;;21.27;;
69900;SDS011;57183;50.930;5.406;2023-02-11T07:18:32;45.70;;;20.17;;
69900;SDS011;57183;50.930;5.406;2023-02-11T07:20:58;39.67;;;18.85;;
69900;SDS011;57183;50.930;5.406;2023-02-11T07:23:24;45.33;;;20.90;;
69900;SDS011;57183;50.930;5.406;2023-02-11T07:25:49;35.55;;;18.20;;
69900;SDS011;57183;50.930;5.406;2023-02-11T07:28:15;42.97;;;20.90;;
69900;SDS011;57183;50.930;5.406;2023-02-11T07:30:41;35.47;;;18.73;;
69900;SDS011;57183;50.930;5.406;2023-02-11T07:33:06;36.72;;;17.30;;
69900;SDS011;57183;50.930;5.406;2023-02-11T07:35:32;48.97;;;24.15;;
69900;SDS011;57183;50.930;5.406;2023-02-11T07:37:58;46.30;;;20.48;;
69900;SDS011;57183;50.930;5.406;2023-02-11T07:40:23;42.17;;;19.48;;
69900;SDS011;57183;50.930;5.406;2023-02-11T07:42:49;41.05;;;21.33;;
69900;SDS011;57183;50.930;5.406;2023-02-11T07:45:15;33.20;;;16.55;;
69900;SDS011;57183;50.930;5.406;2023-02-11T07:47:41;41.08;;;19.20;;
69900;SDS011;57183;50.930;5.406;2023-02-11T07:50:07;43.53;;;21.08;;
69900;SDS011;57183;50.930;5.406;2023-02-11T07:52:33;45.45;;;20.73;;
69900;SDS011;57183;50.930;5.406;2023-02-11T07:54:59;46.05;;;19.65;;
69900;SDS011;57183;50.930;5.406;2023-02-11T07:57:25;44.30;;;20.73;;
69900;SDS011;57183;50.930;5.406;2023-02-11T07:59:51;38.78;;;17.83;;
69900;SDS011;57183;50.930;5.406;2023-02-11T08:02:17;40.95;;;18.73;;
69900;SDS011;57183;50.930;5.406;2023-02-11T08:04:44;41.00;;;20.63;;
69900;SDS011;57183;50.930;5.406;2023-02-11T08:07:13;54.15;;;22.17;;
69900;SDS011;57183;50.930;5.406;2023-02-11T08:09:40;47.13;;;22.67;;
69900;SDS011;57183;50.930;5.406;2023-02-11T08:12:06;50.92;;;22.17;;
69900;SDS011;57183;50.930;5.406;2023-02-11T08:14:32;48.42;;;22.30;;
69900;SDS011;57183;50.930;5.406;2023-02-11T08:16:57;42.55;;;19.30;;
69900;SDS011;57183;50.930;5.406;2023-02-11T08:19:23;42.95;;;19.67;;
69900;SDS011;57183;50.930;5.406;2023-02-11T08:21:49;46.92;;;21.58;;
69900;SDS011;57183;50.930;5.406;2023-02-11T08:24:15;56.08;;;23.17;;
69900;SDS011;57183;50.930;5.406;2023-02-11T08:26:41;40.35;;;19.73;;
69900;SDS011;57183;50.930;5.406;2023-02-11T08:29:10;49.50;;;23.50;;
69900;SDS011;57183;50.930;5.406;2023-02-11T08:31:39;55.78;;;23.20;;
69900;SDS011;57183;50.930;5.406;2023-02-11T08:34:06;56.35;;;22.52;;
69900;SDS011;57183;50.930;5.406;2023-02-11T08:36:34;54.17;;;22.85;;
69900;SDS011;57183;50.930;5.406;2023-02-11T08:39:02;52.10;;;23.95;;
69900;SDS011;57183;50.930;5.406;2023-02-11T08:41:31;44.88;;;23.20;;
69900;SDS011;57183;50.930;5.406;2023-02-11T08:43:58;54.72;;;23.60;;
69900;SDS011;57183;50.930;5.406;2023-02-11T08:46:24;47.88;;;21.67;;
69900;SDS011;57183;50.930;5.406;2023-02-11T08:48:49;61.05;;;25.90;;
69900;SDS011;57183;50.930;5.406;2023-02-11T08:51:20;51.67;;;24.65;;
69900;SDS011;57183;50.930;5.406;2023-02-11T08:53:48;62.20;;;25.42;;
69900;SDS011;57183;50.930;5.406;2023-02-11T08:56:14;52.92;;;23.95;;
69900;SDS011;57183;50.930;5.406;2023-02-11T08:58:41;47.80;;;22.92;;
69900;SDS011;57183;50.930;5.406;2023-02-11T09:01:18;55.35;;;26.05;;
69900;SDS011;57183;50.930;5.406;2023-02-11T09:03:52;45.10;;;22.58;;
69900;SDS011;57183;50.930;5.406;2023-02-11T09:06:18;45.60;;;20.50;;
69900;SDS011;57183;50.930;5.406;2023-02-11T09:08:46;56.70;;;25.10;;
69900;SDS011;57183;50.930;5.406;2023-02-11T09:11:14;55.67;;;24.80;;
69900;SDS011;57183;50.930;5.406;2023-02-11T09:13:41;58.20;;;25.10;;
69900;SDS011;57183;50.930;5.406;2023-02-11T09:16:07;49.22;;;23.88;;
69900;SDS011;57183;50.930;5.406;2023-02-11T09:18:39;56.95;;;27.10;;
69900;SDS011;57183;50.930;5.406;2023-02-11T09:21:06;57.92;;;24.42;;
69900;SDS011;57183;50.930;5.406;2023-02-11T09:23:33;58.60;;;26.15;;
69900;SDS011;57183;50.930;5.406;2023-02-11T09:26:06;69.22;;;29.52;;
69900;SDS011;57183;50.930;5.406;2023-02-11T09:28:33;60.35;;;26.33;;
69900;SDS011;57183;50.930;5.406;2023-02-11T09:31:03;52.28;;;25.50;;
69900;SDS011;57183;50.930;5.406;2023-02-11T09:33:32;63.97;;;26.05;;
69900;SDS011;57183;50.930;5.406;2023-02-11T09:36:04;65.82;;;27.52;;
69900;SDS011;57183;50.930;5.406;2023-02-11T09:38:31;70.40;;;27.27;;
69900;SDS011;57183;50.930;5.406;2023-02-11T09:40:57;67.60;;;27.60;;
69900;SDS011;57183;50.930;5.406;2023-02-11T09:43:30;70.70;;;29.02;;
69900;SDS011;57183;50.930;5.406;2023-02-11T09:46:01;67.38;;;27.98;;
69900;SDS011;57183;50.930;5.406;2023-02-11T09:48:29;56.72;;;25.60;;
69900;SDS011;57183;50.930;5.406;2023-02-11T09:51:04;73.00;;;30.45;;
69900;SDS011;57183;50.930;5.406;2023-02-11T09:53:35;67.13;;;29.20;;
69900;SDS011;57183;50.930;5.406;2023-02-11T09:56:09;74.93;;;28.73;;
69900;SDS011;57183;50.930;5.406;2023-02-11T09:58:41;67.93;;;28.80;;
69900;SDS011;57183;50.930;5.406;2023-02-11T10:01:29;72.18;;;28.95;;
69900;SDS011;57183;50.930;5.406;2023-02-11T10:06:47;68.70;;;28.40;;
69900;SDS011;57183;50.930;5.406;2023-02-11T10:15:14;71.38;;;32.30;;
69900;SDS011;57183;50.930;5.406;2023-02-11T10:23:18;65.28;;;29.63;;
69900;SDS011;57183;50.930;5.406;2023-02-11T10:25:53;71.03;;;28.70;;
69900;SDS011;57183;50.930;5.406;2023-02-11T10:28:31;68.68;;;26.95;;
69900;SDS011;57183;50.930;5.406;2023-02-11T10:31:07;69.22;;;27.98;;
69900;SDS011;57183;50.930;5.406;2023-02-11T10:36:04;73.28;;;29.13;;
69900;SDS011;57183;50.930;5.406;2023-02-11T10:38:30;77.68;;;30.30;;
69900;SDS011;57183;50.930;5.406;2023-02-11T10:40:57;66.50;;;28.50;;
69900;SDS011;57183;50.930;5.406;2023-02-11T10:43:25;64.85;;;28.40;;
69900;SDS011;57183;50.930;5.406;2023-02-11T10:45:54;69.22;;;30.27;;
69900;SDS011;57183;50.930;5.406;2023-02-11T10:51:29;67.38;;;29.50;;
69900;SDS011;57183;50.930;5.406;2023-02-11T10:56:28;72.95;;;29.52;;
69900;SDS011;57183;50.930;5.406;2023-02-11T10:59:00;79.72;;;30.05;;
69900;SDS011;57183;50.930;5.406;2023-02-11T11:07:10;69.78;;;29.02;;
69900;SDS011;57183;50.930;5.406;2023-02-11T11:09:43;72.07;;;30.55;;
69900;SDS011;57183;50.930;5.406;2023-02-11T11:17:35;75.18;;;30.75;;
69900;SDS011;57183;50.930;5.406;2023-02-11T11:20:15;78.80;;;30.73;;
69900;SDS011;57183;50.930;5.406;2023-02-11T11:22:46;70.40;;;29.85;;
69900;SDS011;57183;50.930;5.406;2023-02-11T11:25:27;70.15;;;28.83;;
69900;SDS011;57183;50.930;5.406;2023-02-11T11:27:55;80.47;;;31.83;;
69900;SDS011;57183;50.930;5.406;2023-02-11T11:30:24;79.45;;;32.20;;
69900;SDS011;57183;50.930;5.406;2023-02-11T11:32:55;80.13;;;33.03;;
69900;SDS011;57183;50.930;5.406;2023-02-11T11:35:28;76.57;;;32.55;;
69900;SDS011;57183;50.930;5.406;2023-02-11T11:38:01;67.82;;;28.17;;
69900;SDS011;57183;50.930;5.406;2023-02-11T11:40:30;77.53;;;30.52;;
69900;SDS011;57183;50.930;5.406;2023-02-11T11:43:02;73.55;;;30.58;;
69900;SDS011;57183;50.930;5.406;2023-02-11T11:45:54;77.88;;;31.48;;
69900;SDS011;57183;50.930;5.406;2023-02-11T11:50:56;74.20;;;29.08;;
69900;SDS011;57183;50.930;5.406;2023-02-11T11:53:43;74.30;;;29.55;;
69900;SDS011;57183;50.930;5.406;2023-02-11T11:56:13;76.07;;;32.60;;
69900;SDS011;57183;50.930;5.406;2023-02-11T11:58:42;78.93;;;31.33;;
69900;SDS011;57183;50.930;5.406;2023-02-11T12:12:11;77.93;;;31.48;;
69900;SDS011;57183;50.930;5.406;2023-02-11T12:35:24;79.53;;;30.63;;
69900;SDS011;57183;50.930;5.406;2023-02-11T12:38:35;84.70;;;31.17;;
69900;SDS011;57183;50.930;5.406;2023-02-11T12:43:36;66.38;;;30.00;;
69900;SDS011;57183;50.930;5.406;2023-02-11T12:54:46;67.75;;;27.98;;
69900;SDS011;57183;50.930;5.406;2023-02-11T12:57:22;66.43;;;28.67;;
69900;SDS011;57183;50.930;5.406;2023-02-11T13:00:06;78.63;;;32.83;;
69900;SDS011;57183;50.930;5.406;2023-02-11T13:03:03;69.55;;;30.77;;
69900;SDS011;57183;50.930;5.406;2023-02-11T13:08:24;77.43;;;31.05;;
69900;SDS011;57183;50.930;5.406;2023-02-11T13:11:01;77.03;;;30.20;;
69900;SDS011;57183;50.930;5.406;2023-02-11T13:13:51;67.93;;;29.45;;
69900;SDS011;57183;50.930;5.406;2023-02-11T13:18:57;68.65;;;30.23;;
69900;SDS011;57183;50.930;5.406;2023-02-11T13:24:25;57.95;;;28.45;;
69900;SDS011;57183;50.930;5.406;2023-02-11T13:26:56;64.82;;;29.10;;
69900;SDS011;57183;50.930;5.406;2023-02-11T13:32:14;69.22;;;29.75;;
69900;SDS011;57183;50.930;5.406;2023-02-11T13:37:05;69.15;;;28.70;;
69900;SDS011;57183;50.930;5.406;2023-02-11T13:39:59;62.92;;;29.10;;
69900;SDS011;57183;50.930;5.406;2023-02-11T13:45:40;65.68;;;28.92;;
69900;SDS011;57183;50.930;5.406;2023-02-11T13:48:15;61.95;;;25.65;;
69900;SDS011;57183;50.930;5.406;2023-02-11T13:51:06;60.72;;;27.65;;
69900;SDS011;57183;50.930;5.406;2023-02-11T13:56:12;58.80;;;27.52;;
69900;SDS011;57183;50.930;5.406;2023-02-11T14:04:35;65.88;;;27.15;;
69900;SDS011;57183;50.930;5.406;2023-02-11T14:07:27;57.13;;;25.70;;
69900;SDS011;57183;50.930;5.406;2023-02-11T14:23:47;65.28;;;28.08;;
69900;SDS011;57183;50.930;5.406;2023-02-11T14:31:56;60.63;;;27.08;;
69900;SDS011;57183;50.930;5.406;2023-02-11T14:37:34;61.13;;;27.60;;
69900;SDS011;57183;50.930;5.406;2023-02-11T14:42:50;56.72;;;27.35;;
69900;SDS011;57183;50.930;5.406;2023-02-11T14:45:22;63.20;;;28.80;;
69900;SDS011;57183;50.930;5.406;2023-02-11T14:48:03;58.63;;;27.27;;
69900;SDS011;57183;50.930;5.406;2023-02-11T14:50:35;62.15;;;27.25;;
69900;SDS011;57183;50.930;5.406;2023-02-11T14:53:03;54.50;;;26.52;;
69900;SDS011;57183;50.930;5.406;2023-02-11T14:55:35;61.42;;;28.50;;
69900;SDS011;57183;50.930;5.406;2023-02-11T15:03:31;55.47;;;25.95;;
69900;SDS011;57183;50.930;5.406;2023-02-11T15:06:05;57.63;;;26.45;;
69900;SDS011;57183;50.930;5.406;2023-02-11T15:08:41;64.70;;;27.55;;
69900;SDS011;57183;50.930;5.406;2023-02-11T15:11:11;67.15;;;30.15;;
69900;SDS011;57183;50.930;5.406;2023-02-11T15:13:39;61.45;;;29.13;;
69900;SDS011;57183;50.930;5.406;2023-02-11T15:16:11;54.75;;;25.27;;
69900;SDS011;57183;50.930;5.406;2023-02-11T15:18:42;70.82;;;29.75;;
69900;SDS011;57183;50.930;5.406;2023-02-11T15:21:11;61.28;;;28.35;;
69900;SDS011;57183;50.930;5.406;2023-02-11T15:23:37;62.30;;;27.10;;
69900;SDS011;57183;50.930;5.406;2023-02-11T15:26:16;61.13;;;26.63;;
69900;SDS011;57183;50.930;5.406;2023-02-11T15:28:46;54.00;;;26.33;;
69900;SDS011;57183;50.930;5.406;2023-02-11T15:31:17;58.90;;;28.38;;
69900;SDS011;57183;50.930;5.406;2023-02-11T15:33:50;56.45;;;27.17;;
69900;SDS011;57183;50.930;5.406;2023-02-11T15:36:17;61.10;;;26.50;;
69900;SDS011;57183;50.930;5.406;2023-02-11T15:39:14;58.80;;;26.23;;
69900;SDS011;57183;50.930;5.406;2023-02-11T15:42:20;52.85;;;26.30;;
69900;SDS011;57183;50.930;5.406;2023-02-11T15:44:49;56.55;;;28.58;;
69900;SDS011;57183;50.930;5.406;2023-02-11T15:47:32;64.18;;;28.30;;
69900;SDS011;57183;50.930;5.406;2023-02-11T15:49:58;58.17;;;28.08;;
69900;SDS011;57183;50.930;5.406;2023-02-11T15:52:24;49.00;;;23.10;;
69900;SDS011;57183;50.930;5.406;2023-02-11T15:54:52;55.45;;;26.15;;
69900;SDS011;57183;50.930;5.406;2023-02-11T15:57:20;63.55;;;30.17;;
69900;SDS011;57183;50.930;5.406;2023-02-11T15:59:48;66.85;;;29.45;;
69900;SDS011;57183;50.930;5.406;2023-02-11T16:02:17;60.83;;;28.15;;
69900;SDS011;57183;50.930;5.406;2023-02-11T16:04:53;58.40;;;27.10;;
69900;SDS011;57183;50.930;5.406;2023-02-11T16:10:19;58.70;;;25.20;;
69900;SDS011;57183;50.930;5.406;2023-02-11T16:12:51;60.75;;;28.23;;
69900;SDS011;57183;50.930;5.406;2023-02-11T16:17:54;55.60;;;27.00;;
69900;SDS011;57183;50.930;5.406;2023-02-11T16:20:20;55.90;;;25.85;;
69900;SDS011;57183;50.930;5.406;2023-02-11T16:22:46;61.55;;;28.77;;
69900;SDS011;57183;50.930;5.406;2023-02-11T16:25:19;60.88;;;30.20;;
69900;SDS011;57183;50.930;5.406;2023-02-11T16:27:52;60.67;;;29.23;;
69900;SDS011;57183;50.930;5.406;2023-02-11T16:32:52;64.40;;;28.15;;
69900;SDS011;57183;50.930;5.406;2023-02-11T16:35:18;60.85;;;28.73;;
69900;SDS011;57183;50.930;5.406;2023-02-11T16:37:44;67.10;;;29.73;;
69900;SDS011;57183;50.930;5.406;2023-02-11T16:40:10;59.42;;;28.92;;
69900;SDS011;57183;50.930;5.406;2023-02-11T16:42:37;60.33;;;27.00;;
69900;SDS011;57183;50.930;5.406;2023-02-11T16:45:02;54.85;;;27.58;;
69900;SDS011;57183;50.930;5.406;2023-02-11T16:47:28;55.85;;;26.88;;
69900;SDS011;57183;50.930;5.406;2023-02-11T16:49:57;57.85;;;26.60;;
69900;SDS011;57183;50.930;5.406;2023-02-11T16:52:24;62.13;;;28.05;;
69900;SDS011;57183;50.930;5.406;2023-02-11T16:54:50;58.38;;;29.48;;
69900;SDS011;57183;50.930;5.406;2023-02-11T16:57:20;58.17;;;27.23;;
69900;SDS011;57183;50.930;5.406;2023-02-11T16:59:48;58.47;;;29.23;;
69900;SDS011;57183;50.930;5.406;2023-02-11T17:02:18;61.95;;;31.80;;
69900;SDS011;57183;50.930;5.406;2023-02-11T17:04:47;58.72;;;28.52;;
69900;SDS011;57183;50.930;5.406;2023-02-11T17:07:13;61.85;;;28.25;;
69900;SDS011;57183;50.930;5.406;2023-02-11T17:09:39;60.50;;;28.90;;
69900;SDS011;57183;50.930;5.406;2023-02-11T17:12:04;67.57;;;29.23;;
69900;SDS011;57183;50.930;5.406;2023-02-11T17:14:30;61.92;;;28.20;;
69900;SDS011;57183;50.930;5.406;2023-02-11T17:16:58;54.10;;;27.30;;
69900;SDS011;57183;50.930;5.406;2023-02-11T17:19:23;57.13;;;26.15;;
69900;SDS011;57183;50.930;5.406;2023-02-11T17:21:50;63.42;;;28.67;;
69900;SDS011;57183;50.930;5.406;2023-02-11T17:24:16;58.42;;;29.20;;
69900;SDS011;57183;50.930;5.406;2023-02-11T17:26:43;60.00;;;29.10;;
69900;SDS011;57183;50.930;5.406;2023-02-11T17:29:13;60.22;;;28.92;;
69900;SDS011;57183;50.930;5.406;2023-02-11T17:31:40;54.80;;;28.02;;
69900;SDS011;57183;50.930;5.406;2023-02-11T17:34:09;57.88;;;26.17;;
69900;SDS011;57183;50.930;5.406;2023-02-11T17:36:35;56.72;;;27.83;;